Terminal Aerodrome Forecast
Issued by NWS

Home | Current Version | Previous Version | Text Only | Print | Product List | Glossary On
Versions: 1 2 3 4 5 6 7 8 9 10 11 12 13 14 15 16 17
000
FTUS43 KICT 151740
TAFCNU
TAF
KCNU 151740Z 1518/1618 28017G26KT P6SM OVC015
     FM152100 29020G28KT P6SM OVC025
     FM160000 30015G23KT P6SM OVC035
     FM160500 32015G21KT P6SM OVC025=

USA.gov is the U.S. government's official web portal to all federal, state and local government web resources and services.